sensor_id;sensor_type;location;lat;lon;timestamp;pressure;altitude;pressure_sealevel;temperature;humidity
20710;BME280;10516;51.518;9.864;2023-10-13T00:02:10;98595.16;;;14.55;92.10
20710;BME280;10516;51.518;9.864;2023-10-13T00:04:36;98587.91;;;14.55;91.69
20710;BME280;10516;51.518;9.864;2023-10-13T00:07:02;98576.13;;;14.51;92.25
20710;BME280;10516;51.518;9.864;2023-10-13T00:09:29;98579.13;;;14.45;92.44
20710;BME280;10516;51.518;9.864;2023-10-13T00:12:01;98575.28;;;14.56;92.09
20710;BME280;10516;51.518;9.864;2023-10-13T00:14:28;98569.91;;;14.56;91.92
20710;BME280;10516;51.518;9.864;2023-10-13T00:17:05;98566.91;;;14.62;91.69
20710;BME280;10516;51.518;9.864;2023-10-13T00:19:40;98566.38;;;14.60;92.26
20710;BME280;10516;51.518;9.864;2023-10-13T00:22:15;98578.47;;;14.58;92.25
20710;BME280;10516;51.518;9.864;2023-10-13T00:24:42;98577.94;;;14.61;92.30
20710;BME280;10516;51.518;9.864;2023-10-13T00:27:18;98571.25;;;14.53;93.20
20710;BME280;10516;51.518;9.864;2023-10-13T00:30:03;98575.25;;;14.61;93.01
20710;BME280;10516;51.518;9.864;2023-10-13T00:32:51;98571.78;;;14.55;93.11
20710;BME280;10516;51.518;9.864;2023-10-13T00:35:21;98570.97;;;14.55;93.17
20710;BME280;10516;51.518;9.864;2023-10-13T00:38:07;98573.06;;;14.63;93.14
20710;BME280;10516;51.518;9.864;2023-10-13T00:40:43;98564.84;;;14.49;93.10
20710;BME280;10516;51.518;9.864;2023-10-13T00:43:21;98571.22;;;14.58;93.34
20710;BME280;10516;51.518;9.864;2023-10-13T00:45:50;98570.66;;;14.61;93.09
20710;BME280;10516;51.518;9.864;2023-10-13T00:48:37;98580.16;;;14.49;94.32
20710;BME280;10516;51.518;9.864;2023-10-13T00:51:12;98571.78;;;14.55;93.89
20710;BME280;10516;51.518;9.864;2023-10-13T00:53:57;98562.16;;;14.49;93.54
20710;BME280;10516;51.518;9.864;2023-10-13T00:56:22;98561.88;;;14.51;93.46
20710;BME280;10516;51.518;9.864;2023-10-13T00:58:53;98564.09;;;14.44;94.26
20710;BME280;10516;51.518;9.864;2023-10-13T01:01:20;98565.91;;;14.48;93.66
20710;BME280;10516;51.518;9.864;2023-10-13T01:03:54;98557.44;;;14.36;94.60
20710;BME280;10516;51.518;9.864;2023-10-13T01:06:27;98563.72;;;14.55;93.23
20710;BME280;10516;51.518;9.864;2023-10-13T01:08:59;98566.47;;;14.50;92.77
20710;BME280;10516;51.518;9.864;2023-10-13T01:11:47;98569.28;;;14.64;92.85
20710;BME280;10516;51.518;9.864;2023-10-13T01:14:21;98566.19;;;14.52;92.45
20710;BME280;10516;51.518;9.864;2023-10-13T01:16:48;98571.03;;;14.50;93.49
20710;BME280;10516;51.518;9.864;2023-10-13T01:19:17;98565.47;;;14.41;93.27
20710;BME280;10516;51.518;9.864;2023-10-13T01:21:45;98569.81;;;14.32;94.75
20710;BME280;10516;51.518;9.864;2023-10-13T01:24:12;98557.94;;;14.43;93.68
20710;BME280;10516;51.518;9.864;2023-10-13T01:26:38;98556.59;;;14.41;93.89
20710;BME280;10516;51.518;9.864;2023-10-13T01:29:07;98550.56;;;14.59;92.38
20710;BME280;10516;51.518;9.864;2023-10-13T01:31:38;98564.00;;;14.54;92.66
20710;BME280;10516;51.518;9.864;2023-10-13T01:34:11;98558.34;;;14.55;92.45
20710;BME280;10516;51.518;9.864;2023-10-13T01:36:38;98554.63;;;14.51;92.77
20710;BME280;10516;51.518;9.864;2023-10-13T01:39:05;98558.84;;;14.62;92.54
20710;BME280;10516;51.518;9.864;2023-10-13T01:41:30;98551.63;;;14.58;92.17
20710;BME280;10516;51.518;9.864;2023-10-13T01:43:56;98550.13;;;14.42;93.85
20710;BME280;10516;51.518;9.864;2023-10-13T01:46:22;98549.16;;;14.61;92.29
20710;BME280;10516;51.518;9.864;2023-10-13T01:48:47;98537.81;;;14.41;93.20
20710;BME280;10516;51.518;9.864;2023-10-13T01:51:13;98550.28;;;14.55;92.36
20710;BME280;10516;51.518;9.864;2023-10-13T01:53:39;98546.25;;;14.58;92.93
20710;BME280;10516;51.518;9.864;2023-10-13T01:56:07;98556.16;;;14.62;92.43
20710;BME280;10516;51.518;9.864;2023-10-13T01:58:39;98547.63;;;14.55;92.47
20710;BME280;10516;51.518;9.864;2023-10-13T02:01:09;98538.63;;;14.70;92.63
20710;BME280;10516;51.518;9.864;2023-10-13T02:03:35;98534.16;;;14.60;93.44
20710;BME280;10516;51.518;9.864;2023-10-13T02:06:07;98528.22;;;14.63;93.18
20710;BME280;10516;51.518;9.864;2023-10-13T02:08:35;98526.31;;;14.64;93.43
20710;BME280;10516;51.518;9.864;2023-10-13T02:11:05;98524.72;;;14.63;93.86
20710;BME280;10516;51.518;9.864;2023-10-13T02:13:32;98512.66;;;14.60;93.62
20710;BME280;10516;51.518;9.864;2023-10-13T02:15:58;98514.72;;;14.68;93.54
20710;BME280;10516;51.518;9.864;2023-10-13T02:18:28;98517.41;;;14.68;93.27
20710;BME280;10516;51.518;9.864;2023-10-13T02:21:02;98516.84;;;14.71;93.71
20710;BME280;10516;51.518;9.864;2023-10-13T02:23:30;98515.50;;;14.74;93.52
20710;BME280;10516;51.518;9.864;2023-10-13T02:26:04;98507.25;;;14.65;94.32
20710;BME280;10516;51.518;9.864;2023-10-13T02:28:36;98498.41;;;14.60;94.25
20710;BME280;10516;51.518;9.864;2023-10-13T02:31:02;98494.34;;;14.67;94.31
20710;BME280;10516;51.518;9.864;2023-10-13T02:33:29;98499.41;;;14.69;94.26
20710;BME280;10516;51.518;9.864;2023-10-13T02:35:58;98505.84;;;14.68;94.17
20710;BME280;10516;51.518;9.864;2023-10-13T02:38:24;98496.94;;;14.72;94.36
20710;BME280;10516;51.518;9.864;2023-10-13T02:40:59;98493.53;;;14.67;94.29
20710;BME280;10516;51.518;9.864;2023-10-13T02:43:47;98498.34;;;14.70;94.62
20710;BME280;10516;51.518;9.864;2023-10-13T02:46:12;98492.16;;;14.69;94.04
20710;BME280;10516;51.518;9.864;2023-10-13T02:48:41;98493.22;;;14.68;94.54
20710;BME280;10516;51.518;9.864;2023-10-13T02:51:08;98495.44;;;14.61;94.76
20710;BME280;10516;51.518;9.864;2023-10-13T02:53:46;98487.34;;;14.66;94.53
20710;BME280;10516;51.518;9.864;2023-10-13T02:56:15;98485.75;;;14.65;95.08
20710;BME280;10516;51.518;9.864;2023-10-13T02:58:47;98479.81;;;14.68;94.54
20710;BME280;10516;51.518;9.864;2023-10-13T03:01:19;98472.88;;;14.62;95.45
20710;BME280;10516;51.518;9.864;2023-10-13T03:03:50;98483.53;;;14.72;94.64
20710;BME280;10516;51.518;9.864;2023-10-13T03:06:19;98481.91;;;14.76;94.41
20710;BME280;10516;51.518;9.864;2023-10-13T03:08:48;98486.47;;;14.76;94.47
20710;BME280;10516;51.518;9.864;2023-10-13T03:11:13;98469.00;;;14.73;94.53
20710;BME280;10516;51.518;9.864;2023-10-13T03:13:42;98467.22;;;14.64;95.35
20710;BME280;10516;51.518;9.864;2023-10-13T03:16:15;98471.88;;;14.82;94.11
20710;BME280;10516;51.518;9.864;2023-10-13T03:18:43;98456.59;;;14.77;94.21
20710;BME280;10516;51.518;9.864;2023-10-13T03:21:17;98466.50;;;14.82;94.71
20710;BME280;10516;51.518;9.864;2023-10-13T03:23:57;98457.63;;;14.81;94.20
20710;BME280;10516;51.518;9.864;2023-10-13T03:26:29;98459.34;;;14.72;94.50
20710;BME280;10516;51.518;9.864;2023-10-13T03:28:56;98451.53;;;14.76;94.69
20710;BME280;10516;51.518;9.864;2023-10-13T03:31:23;98445.66;;;14.74;94.67
20710;BME280;10516;51.518;9.864;2023-10-13T03:33:53;98437.63;;;14.69;95.12
20710;BME280;10516;51.518;9.864;2023-10-13T03:36:24;98438.13;;;14.71;94.69
20710;BME280;10516;51.518;9.864;2023-10-13T03:39:12;98444.03;;;14.73;94.81
20710;BME280;10516;51.518;9.864;2023-10-13T03:41:38;98434.66;;;14.70;94.98
20710;BME280;10516;51.518;9.864;2023-10-13T03:44:05;98438.44;;;14.69;95.28
20710;BME280;10516;51.518;9.864;2023-10-13T03:46:38;98433.06;;;14.69;95.12
20710;BME280;10516;51.518;9.864;2023-10-13T03:49:06;98440.31;;;14.69;94.82
20710;BME280;10516;51.518;9.864;2023-10-13T03:51:34;98438.44;;;14.69;95.04
20710;BME280;10516;51.518;9.864;2023-10-13T03:54:01;98433.47;;;14.81;94.60
20710;BME280;10516;51.518;9.864;2023-10-13T03:56:32;98432.22;;;14.74;94.75
20710;BME280;10516;51.518;9.864;2023-10-13T03:59:05;98430.38;;;14.69;94.73
20710;BME280;10516;51.518;9.864;2023-10-13T04:01:38;98424.16;;;14.74;94.95
20710;BME280;10516;51.518;9.864;2023-10-13T04:04:11;98433.00;;;14.74;95.10
20710;BME280;10516;51.518;9.864;2023-10-13T04:06:41;98435.75;;;14.69;95.45
20710;BME280;10516;51.518;9.864;2023-10-13T04:09:19;98433.00;;;14.74;94.93
20710;BME280;10516;51.518;9.864;2023-10-13T04:12:06;98430.03;;;14.76;94.84
20710;BME280;10516;51.518;9.864;2023-10-13T04:14:44;98426.88;;;14.69;94.89
20710;BME280;10516;51.518;9.864;2023-10-13T04:17:28;98419.28;;;14.76;94.10
20710;BME280;10516;51.518;9.864;2023-10-13T04:19:56;98421.63;;;14.82;94.88
20710;BME280;10516;51.518;9.864;2023-10-13T04:25:21;98415.41;;;14.87;94.50
20710;BME280;10516;51.518;9.864;2023-10-13T04:28:10;98422.44;;;14.83;95.14
20710;BME280;10516;51.518;9.864;2023-10-13T04:30:49;98411.91;;;14.86;94.26
20710;BME280;10516;51.518;9.864;2023-10-13T04:33:21;98411.09;;;14.86;94.32
20710;BME280;10516;51.518;9.864;2023-10-13T04:38:47;98408.66;;;14.89;94.60
20710;BME280;10516;51.518;9.864;2023-10-13T04:41:26;98409.28;;;14.81;95.17
20710;BME280;10516;51.518;9.864;2023-10-13T04:44:12;98405.22;;;14.84;95.05
20710;BME280;10516;51.518;9.864;2023-10-13T04:46:58;98408.38;;;14.91;94.74
20710;BME280;10516;51.518;9.864;2023-10-13T04:49:26;98399.50;;;14.90;95.20
20710;BME280;10516;51.518;9.864;2023-10-13T04:52:04;98389.31;;;14.87;95.11
20710;BME280;10516;51.518;9.864;2023-10-13T04:57:22;98383.16;;;14.87;95.44
20710;BME280;10516;51.518;9.864;2023-10-13T05:00:03;98383.06;;;14.92;94.54
20710;BME280;10516;51.518;9.864;2023-10-13T05:02:32;98383.66;;;14.89;95.18
20710;BME280;10516;51.518;9.864;2023-10-13T05:05:08;98363.50;;;14.91;95.65
20710;BME280;10516;51.518;9.864;2023-10-13T05:07:47;98369.06;;;14.95;96.16
20710;BME280;10516;51.518;9.864;2023-10-13T05:10:33;98357.59;;;14.89;95.68
20710;BME280;10516;51.518;9.864;2023-10-13T05:13:17;98351.13;;;14.90;95.95
20710;BME280;10516;51.518;9.864;2023-10-13T05:16:01;98347.38;;;14.91;95.86
20710;BME280;10516;51.518;9.864;2023-10-13T05:18:45;98345.19;;;14.93;96.17
20710;BME280;10516;51.518;9.864;2023-10-13T05:21:29;98338.50;;;14.91;96.09
20710;BME280;10516;51.518;9.864;2023-10-13T05:24:16;98340.38;;;14.90;96.41
20710;BME280;10516;51.518;9.864;2023-10-13T05:27:00;98324.75;;;14.92;95.93
20710;BME280;10516;51.518;9.864;2023-10-13T05:29:46;98337.28;;;15.02;95.85
20710;BME280;10516;51.518;9.864;2023-10-13T05:32:31;98333.06;;;14.96;96.25
20710;BME280;10516;51.518;9.864;2023-10-13T05:35:16;98339.50;;;14.95;96.11
20710;BME280;10516;51.518;9.864;2023-10-13T05:38:01;98338.34;;;15.01;96.09
20710;BME280;10516;51.518;9.864;2023-10-13T05:40:58;98327.34;;;15.02;95.58
20710;BME280;10516;51.518;9.864;2023-10-13T05:43:43;98325.22;;;14.99;95.93
20710;BME280;10516;51.518;9.864;2023-10-13T05:46:27;98322.03;;;14.97;95.59
20710;BME280;10516;51.518;9.864;2023-10-13T05:48:53;98304.56;;;14.95;96.17
20710;BME280;10516;51.518;9.864;2023-10-13T05:51:30;98306.47;;;14.94;95.75
20710;BME280;10516;51.518;9.864;2023-10-13T05:54:01;98314.91;;;15.07;95.26
20710;BME280;10516;51.518;9.864;2023-10-13T05:56:40;98315.41;;;15.09;94.36
20710;BME280;10516;51.518;9.864;2023-10-13T05:59:25;98324.34;;;15.04;94.72
20710;BME280;10516;51.518;9.864;2023-10-13T06:02:09;98310.66;;;15.00;94.62
20710;BME280;10516;51.518;9.864;2023-10-13T06:04:53;98317.66;;;15.01;94.56
20710;BME280;10516;51.518;9.864;2023-10-13T06:07:37;98323.25;;;15.05;94.12
20710;BME280;10516;51.518;9.864;2023-10-13T06:10:21;98316.78;;;15.06;94.71
20710;BME280;10516;51.518;9.864;2023-10-13T06:13:06;98312.44;;;15.10;93.83
20710;BME280;10516;51.518;9.864;2023-10-13T06:15:50;98304.53;;;15.00;94.67
20710;BME280;10516;51.518;9.864;2023-10-13T06:18:34;98311.13;;;15.08;94.31
20710;BME280;10516;51.518;9.864;2023-10-13T06:21:20;98318.91;;;15.09;94.34
20710;BME280;10516;51.518;9.864;2023-10-13T06:24:04;98306.69;;;14.98;95.59
20710;BME280;10516;51.518;9.864;2023-10-13T06:26:48;98302.09;;;14.98;95.94
20710;BME280;10516;51.518;9.864;2023-10-13T06:29:32;98307.97;;;15.00;96.36
20710;BME280;10516;51.518;9.864;2023-10-13T06:31:58;98303.34;;;15.06;95.10
20710;BME280;10516;51.518;9.864;2023-10-13T06:34:30;98309.81;;;15.05;95.80
20710;BME280;10516;51.518;9.864;2023-10-13T06:37:25;98309.59;;;15.01;96.95
20710;BME280;10516;51.518;9.864;2023-10-13T06:39:53;98294.28;;;15.02;95.91
20710;BME280;10516;51.518;9.864;2023-10-13T06:42:27;98311.72;;;15.05;95.94
20710;BME280;10516;51.518;9.864;2023-10-13T06:44:56;98317.00;;;15.10;95.44
20710;BME280;10516;51.518;9.864;2023-10-13T06:47:22;98307.13;;;15.05;96.09
20710;BME280;10516;51.518;9.864;2023-10-13T06:49:48;98314.41;;;15.05;98.01
20710;BME280;10516;51.518;9.864;2023-10-13T06:52:17;98309.38;;;14.98;98.76
20710;BME280;10516;51.518;9.864;2023-10-13T06:54:43;98312.13;;;15.12;95.93
20710;BME280;10516;51.518;9.864;2023-10-13T06:57:09;98312.56;;;15.19;95.22
20710;BME280;10516;51.518;9.864;2023-10-13T06:59:40;98300.81;;;15.15;96.26
20710;BME280;10516;51.518;9.864;2023-10-13T07:02:06;98299.19;;;15.14;98.49
20710;BME280;10516;51.518;9.864;2023-10-13T07:04:42;98299.78;;;15.11;99.05
20710;BME280;10516;51.518;9.864;2023-10-13T07:07:11;98311.16;;;15.40;94.68
20710;BME280;10516;51.518;9.864;2023-10-13T07:09:44;98319.78;;;15.42;94.64
20710;BME280;10516;51.518;9.864;2023-10-13T07:12:34;98321.72;;;15.36;95.99
20710;BME280;10516;51.518;9.864;2023-10-13T07:15:00;98305.00;;;15.21;95.94
20710;BME280;10516;51.518;9.864;2023-10-13T07:17:49;98309.16;;;15.32;96.22
20710;BME280;10516;51.518;9.864;2023-10-13T07:20:23;98298.09;;;15.33;96.38
20710;BME280;10516;51.518;9.864;2023-10-13T07:22:59;98296.00;;;15.30;96.68
20710;BME280;10516;51.518;9.864;2023-10-13T07:25:35;98301.97;;;15.27;98.33
20710;BME280;10516;51.518;9.864;2023-10-13T07:28:07;98296.88;;;15.26;97.98
20710;BME280;10516;51.518;9.864;2023-10-13T07:30:35;98285.25;;;15.30;97.48
20710;BME280;10516;51.518;9.864;2023-10-13T07:33:27;98299.72;;;15.34;99.46
20710;BME280;10516;51.518;9.864;2023-10-13T07:36:06;98293.31;;;15.30;99.68
20710;BME280;10516;51.518;9.864;2023-10-13T07:38:45;98305.28;;;15.38;100.00
20710;BME280;10516;51.518;9.864;2023-10-13T07:41:17;98301.38;;;15.49;99.97
20710;BME280;10516;51.518;9.864;2023-10-13T07:43:43;98293.91;;;15.46;100.00
20710;BME280;10516;51.518;9.864;2023-10-13T07:46:10;98286.69;;;15.41;100.00
20710;BME280;10516;51.518;9.864;2023-10-13T07:48:37;98287.78;;;15.40;100.00
20710;BME280;10516;51.518;9.864;2023-10-13T07:53:29;98299.81;;;15.48;100.00
20710;BME280;10516;51.518;9.864;2023-10-13T07:56:00;98290.13;;;15.47;100.00
20710;BME280;10516;51.518;9.864;2023-10-13T07:58:28;98290.63;;;15.49;100.00
20710;BME280;10516;51.518;9.864;2023-10-13T08:00:53;98295.13;;;15.53;100.00
20710;BME280;10516;51.518;9.864;2023-10-13T08:03:41;98288.66;;;15.54;100.00
20710;BME280;10516;51.518;9.864;2023-10-13T08:06:11;98288.28;;;15.61;100.00
20710;BME280;10516;51.518;9.864;2023-10-13T08:08:37;98289.66;;;15.58;100.00
20710;BME280;10516;51.518;9.864;2023-10-13T08:11:08;98283.09;;;15.64;100.00
20710;BME280;10516;51.518;9.864;2023-10-13T08:13:46;98277.53;;;15.61;100.00
20710;BME280;10516;51.518;9.864;2023-10-13T08:16:15;98274.75;;;15.66;100.00
20710;BME280;10516;51.518;9.864;2023-10-13T08:18:49;98269.28;;;15.71;100.00
20710;BME280;10516;51.518;9.864;2023-10-13T08:21:15;98268.78;;;15.69;100.00
20710;BME280;10516;51.518;9.864;2023-10-13T08:23:45;98255.81;;;15.71;100.00
20710;BME280;10516;51.518;9.864;2023-10-13T08:26:24;98259.50;;;15.75;100.00
20710;BME280;10516;51.518;9.864;2023-10-13T08:29:02;98270.88;;;15.72;100.00
20710;BME280;10516;51.518;9.864;2023-10-13T08:31:47;98258.44;;;15.76;100.00
20710;BME280;10516;51.518;9.864;2023-10-13T08:34:36;98253.06;;;15.76;100.00
20710;BME280;10516;51.518;9.864;2023-10-13T08:37:27;98258.50;;;15.71;100.00
20710;BME280;10516;51.518;9.864;2023-10-13T08:39:54;98248.16;;;15.78;100.00
20710;BME280;10516;51.518;9.864;2023-10-13T08:42:45;98240.19;;;15.73;100.00
20710;BME280;10516;51.518;9.864;2023-10-13T08:45:14;98226.44;;;15.74;100.00
20710;BME280;10516;51.518;9.864;2023-10-13T08:47:59;98193.03;;;15.75;100.00
20710;BME280;10516;51.518;9.864;2023-10-13T08:50:50;98209.09;;;15.67;100.00
20710;BME280;10516;51.518;9.864;2023-10-13T08:53:26;98194.53;;;15.68;100.00
20710;BME280;10516;51.518;9.864;2023-10-13T08:56:12;98200.94;;;15.72;100.00
20710;BME280;10516;51.518;9.864;2023-10-13T08:58:51;98175.72;;;15.68;100.00
20710;BME280;10516;51.518;9.864;2023-10-13T09:04:02;98198.44;;;15.75;100.00
20710;BME280;10516;51.518;9.864;2023-10-13T09:06:58;98199.91;;;15.82;100.00
20710;BME280;10516;51.518;9.864;2023-10-13T09:12:13;98199.13;;;15.95;100.00
20710;BME280;10516;51.518;9.864;2023-10-13T09:14:41;98202.22;;;16.02;100.00
20710;BME280;10516;51.518;9.864;2023-10-13T09:17:13;98200.34;;;16.02;100.00
20710;BME280;10516;51.518;9.864;2023-10-13T09:19:52;98202.63;;;16.09;100.00
20710;BME280;10516;51.518;9.864;2023-10-13T09:22:26;98209.00;;;16.13;100.00
20710;BME280;10516;51.518;9.864;2023-10-13T09:24:58;98204.44;;;16.13;100.00
20710;BME280;10516;51.518;9.864;2023-10-13T09:27:26;98203.03;;;16.16;100.00
20710;BME280;10516;51.518;9.864;2023-10-13T09:29:59;98197.75;;;16.24;100.00
20710;BME280;10516;51.518;9.864;2023-10-13T09:32:34;98193.25;;;16.20;100.00
20710;BME280;10516;51.518;9.864;2023-10-13T09:35:14;98193.34;;;16.28;100.00
20710;BME280;10516;51.518;9.864;2023-10-13T09:37:42;98191.25;;;16.25;99.41
20710;BME280;10516;51.518;9.864;2023-10-13T09:40:08;98183.47;;;16.24;99.50
20710;BME280;10516;51.518;9.864;2023-10-13T09:42:51;98169.28;;;16.32;99.93
20710;BME280;10516;51.518;9.864;2023-10-13T09:45:17;98181.69;;;16.33;99.79
20710;BME280;10516;51.518;9.864;2023-10-13T09:47:46;98171.72;;;16.33;100.00
20710;BME280;10516;51.518;9.864;2023-10-13T09:50:19;98163.72;;;16.42;99.61
20710;BME280;10516;51.518;9.864;2023-10-13T09:52:51;98157.03;;;16.39;99.03
20710;BME280;10516;51.518;9.864;2023-10-13T09:55:30;98159.31;;;16.46;98.34
20710;BME280;10516;51.518;9.864;2023-10-13T09:58:03;98156.22;;;16.53;98.55
20710;BME280;10516;51.518;9.864;2023-10-13T10:00:40;98145.34;;;16.58;98.64
20710;BME280;10516;51.518;9.864;2023-10-13T10:03:07;98129.78;;;16.55;98.16
20710;BME280;10516;51.518;9.864;2023-10-13T10:06:01;98136.94;;;16.59;97.76
20710;BME280;10516;51.518;9.864;2023-10-13T10:08:41;98135.56;;;16.62;97.04
20710;BME280;10516;51.518;9.864;2023-10-13T10:17:08;98137.50;;;16.70;96.01
20710;BME280;10516;51.518;9.864;2023-10-13T10:19:54;98138.81;;;16.72;95.24
20710;BME280;10516;51.518;9.864;2023-10-13T10:22:29;98129.81;;;16.77;95.20
20710;BME280;10516;51.518;9.864;2023-10-13T10:25:05;98124.91;;;16.79;94.71
20710;BME280;10516;51.518;9.864;2023-10-13T10:27:57;98129.06;;;16.85;94.15
20710;BME280;10516;51.518;9.864;2023-10-13T10:30:26;98121.94;;;16.89;94.63
20710;BME280;10516;51.518;9.864;2023-10-13T10:32:56;98116.56;;;16.89;93.77
20710;BME280;10516;51.518;9.864;2023-10-13T10:35:26;98121.22;;;16.97;93.16
20710;BME280;10516;51.518;9.864;2023-10-13T10:38:18;98112.81;;;16.98;92.71
20710;BME280;10516;51.518;9.864;2023-10-13T10:41:00;98111.28;;;17.06;92.79
20710;BME280;10516;51.518;9.864;2023-10-13T10:43:39;98109.25;;;17.11;92.30
20710;BME280;10516;51.518;9.864;2023-10-13T10:46:27;98093.97;;;17.29;91.58
20710;BME280;10516;51.518;9.864;2023-10-13T10:48:55;98091.44;;;17.33;91.33
20710;BME280;10516;51.518;9.864;2023-10-13T10:51:27;98087.31;;;17.35;91.03
20710;BME280;10516;51.518;9.864;2023-10-13T10:54:00;98085.59;;;17.39;89.97
20710;BME280;10516;51.518;9.864;2023-10-13T10:56:46;98080.19;;;17.39;89.60
20710;BME280;10516;51.518;9.864;2023-10-13T10:59:18;98068.44;;;17.35;89.68
20710;BME280;10516;51.518;9.864;2023-10-13T11:01:45;98073.69;;;17.32;89.36
20710;BME280;10516;51.518;9.864;2023-10-13T11:04:17;98081.78;;;17.32;89.11
20710;BME280;10516;51.518;9.864;2023-10-13T11:06:59;98073.81;;;17.27;88.52
20710;BME280;10516;51.518;9.864;2023-10-13T11:09:49;98075.25;;;17.33;88.54
20710;BME280;10516;51.518;9.864;2023-10-13T11:12:18;98061.47;;;17.34;87.76
20710;BME280;10516;51.518;9.864;2023-10-13T11:15:07;98061.75;;;17.33;87.96
20710;BME280;10516;51.518;9.864;2023-10-13T11:17:51;98049.06;;;17.33;87.52
20710;BME280;10516;51.518;9.864;2023-10-13T11:20:20;98044.31;;;17.39;87.05
20710;BME280;10516;51.518;9.864;2023-10-13T11:22:59;98045.31;;;17.43;87.08
20710;BME280;10516;51.518;9.864;2023-10-13T11:25:30;98045.78;;;17.45;87.04
20710;BME280;10516;51.518;9.864;2023-10-13T11:28:13;98047.09;;;17.47;86.69
20710;BME280;10516;51.518;9.864;2023-10-13T11:31:04;98046.16;;;17.52;86.31
20710;BME280;10516;51.518;9.864;2023-10-13T11:33:36;98047.75;;;17.53;86.20
20710;BME280;10516;51.518;9.864;2023-10-13T11:36:02;98033.47;;;17.52;86.26
20710;BME280;10516;51.518;9.864;2023-10-13T11:38:38;98045.84;;;17.53;85.84
20710;BME280;10516;51.518;9.864;2023-10-13T11:41:13;98032.19;;;17.58;85.30
20710;BME280;10516;51.518;9.864;2023-10-13T11:43:50;98046.34;;;17.55;85.76
20710;BME280;10516;51.518;9.864;2023-10-13T11:46:21;98036.19;;;17.61;85.35
20710;BME280;10516;51.518;9.864;2023-10-13T11:49:06;98025.88;;;17.63;85.54
20710;BME280;10516;51.518;9.864;2023-10-13T11:51:47;98035.09;;;17.62;85.19
20710;BME280;10516;51.518;9.864;2023-10-13T11:54:17;98013.97;;;17.64;84.78
20710;BME280;10516;51.518;9.864;2023-10-13T11:56:43;98022.56;;;17.74;84.30
20710;BME280;10516;51.518;9.864;2023-10-13T11:59:10;98021.31;;;17.97;84.19
20710;BME280;10516;51.518;9.864;2023-10-13T12:01:44;98027.84;;;18.14;83.44
20710;BME280;10516;51.518;9.864;2023-10-13T12:04:28;98032.50;;;18.30;82.97
20710;BME280;10516;51.518;9.864;2023-10-13T12:07:09;98014.19;;;18.36;82.13
20710;BME280;10516;51.518;9.864;2023-10-13T12:10:06;98004.97;;;18.62;81.45
20710;BME280;10516;51.518;9.864;2023-10-13T12:12:40;97986.19;;;18.75;80.77
20710;BME280;10516;51.518;9.864;2023-10-13T12:15:07;97995.06;;;18.84;80.81
20710;BME280;10516;51.518;9.864;2023-10-13T12:17:50;97990.16;;;18.77;80.48
20710;BME280;10516;51.518;9.864;2023-10-13T12:20:15;98001.59;;;18.74;80.60
20710;BME280;10516;51.518;9.864;2023-10-13T12:22:50;97997.75;;;18.84;80.18
20710;BME280;10516;51.518;9.864;2023-10-13T12:25:20;97986.91;;;18.92;79.89
20710;BME280;10516;51.518;9.864;2023-10-13T12:27:58;97979.19;;;19.11;79.17
20710;BME280;10516;51.518;9.864;2023-10-13T12:30:31;97985.84;;;19.22;78.86
20710;BME280;10516;51.518;9.864;2023-10-13T12:33:16;97984.22;;;19.38;78.46
20710;BME280;10516;51.518;9.864;2023-10-13T12:35:58;97984.56;;;19.28;78.67
20710;BME280;10516;51.518;9.864;2023-10-13T12:38:52;97988.97;;;19.04;79.48
20710;BME280;10516;51.518;9.864;2023-10-13T12:41:37;97984.38;;;18.96;79.88
20710;BME280;10516;51.518;9.864;2023-10-13T12:44:21;97982.81;;;18.86;79.99
20710;BME280;10516;51.518;9.864;2023-10-13T12:47:05;97988.84;;;18.83;79.72
20710;BME280;10516;51.518;9.864;2023-10-13T12:49:49;97990.94;;;18.78;79.52
20710;BME280;10516;51.518;9.864;2023-10-13T12:52:23;97993.00;;;18.72;79.65
20710;BME280;10516;51.518;9.864;2023-10-13T12:54:51;97987.47;;;18.68;80.09
20710;BME280;10516;51.518;9.864;2023-10-13T12:57:26;98004.50;;;18.69;80.02
20710;BME280;10516;51.518;9.864;2023-10-13T12:59:52;97993.50;;;18.65;80.07
20710;BME280;10516;51.518;9.864;2023-10-13T13:02:22;97994.47;;;18.69;79.83
20710;BME280;10516;51.518;9.864;2023-10-13T13:04:53;97987.03;;;18.58;80.72
20710;BME280;10516;51.518;9.864;2023-10-13T13:07:32;97962.84;;;18.53;80.28
20710;BME280;10516;51.518;9.864;2023-10-13T13:10:08;97947.59;;;18.40;80.48
20710;BME280;10516;51.518;9.864;2023-10-13T13:12:33;97960.78;;;18.58;80.26
20710;BME280;10516;51.518;9.864;2023-10-13T13:14:59;97961.28;;;18.52;80.91
20710;BME280;10516;51.518;9.864;2023-10-13T13:17:25;97962.72;;;18.49;80.95
20710;BME280;10516;51.518;9.864;2023-10-13T13:19:50;97957.63;;;18.56;80.39
20710;BME280;10516;51.518;9.864;2023-10-13T13:22:16;97962.84;;;18.53;80.73
20710;BME280;10516;51.518;9.864;2023-10-13T13:24:43;97954.44;;;18.46;80.55
20710;BME280;10516;51.518;9.864;2023-10-13T13:27:14;97954.75;;;18.44;80.39
20710;BME280;10516;51.518;9.864;2023-10-13T13:29:46;97963.97;;;18.52;80.54
20710;BME280;10516;51.518;9.864;2023-10-13T13:32:12;97956.97;;;18.51;80.26
20710;BME280;10516;51.518;9.864;2023-10-13T13:35:03;97955.69;;;18.57;80.25
20710;BME280;10516;51.518;9.864;2023-10-13T13:37:30;97956.63;;;18.61;79.85
20710;BME280;10516;51.518;9.864;2023-10-13T13:39:56;97953.22;;;18.81;79.67
20710;BME280;10516;51.518;9.864;2023-10-13T13:42:21;97951.09;;;19.04;78.63
20710;BME280;10516;51.518;9.864;2023-10-13T13:44:47;97941.19;;;19.08;78.44
20710;BME280;10516;51.518;9.864;2023-10-13T13:47:13;97936.81;;;18.95;78.79
20710;BME280;10516;51.518;9.864;2023-10-13T13:49:40;97931.25;;;18.91;78.88
20710;BME280;10516;51.518;9.864;2023-10-13T13:52:08;97917.91;;;18.86;78.79
20710;BME280;10516;51.518;9.864;2023-10-13T13:54:34;97909.16;;;18.89;78.79
20710;BME280;10516;51.518;9.864;2023-10-13T13:57:00;97893.09;;;18.84;78.80
20710;BME280;10516;51.518;9.864;2023-10-13T13:59:25;97902.47;;;19.16;78.27
20710;BME280;10516;51.518;9.864;2023-10-13T14:01:51;97905.59;;;19.35;77.63